La Grande, OR

10:40 PM PDT on April 22, 2017 (GMT -0700)
La Grande-Union County

Weather History for KLGD - November, 2012

Change the Weather History Date:

Saturday, November 17, 2012

  Actual Average Record
Temperature  
Mean Temperature 46 °F -  
Max Temperature 55 °F 44 °F 63 °F (1976)
Min Temperature 37 °F 30 °F -5 °F (2014)
Degree Days  
Heating Degree Days 19    
Moisture  
Dew Point 33 °F    
Average Humidity 58    
Maximum Humidity 75    
Minimum Humidity 44    
Precipitation  
Precipitation 0.00 in - - ()
Sea Level Pressure  
Sea Level Pressure 29.74 in    
Wind  
Wind Speed 14 mph (SSE)    
Max Wind Speed 37 mph    
Max Gust Speed 44 mph    
Visibility 10 miles    
Events      
Averages and records for this station are not official NWS values.
T = Trace of Precipitation, MM = Missing Value Source: NWS Daily Summary

Daily Weather History Graph

Daily Weather History Graph

Search for Another Location

Airport or City:

Trip Planner

Search our weather history database for the weather conditions in past years. The results will help you decide how hot, cold, wet, or windy it might be!

Date:

Astronomy

Nov. 17, 2012 Rise Set
Actual Time 6:54 AM PST 4:19 PM PST
Civil Twilight 6:21 AM PST 4:52 PM PST
Nautical Twilight 5:45 AM PST 5:27 PM PST
Astronomical Twilight 5:10 AM PST 6:02 PM PST
Moon 10:42 AM PST (11/17) 8:36 PM PST (11/17)
Length of Visible Light 10h 30m
Length of Day
9h 25m
Waxing Crescent, 21% of the Moon is Illuminated
Nov 17
Waxing Crescent
Nov 20
First Quarter
Nov 28
Full
Dec 6
Last Quarter
Dec 13
New

Hourly Weather History & Observations

Time (PST) Temp. Windchill Dew Point Humidity Pressure Visibility Wind Dir Wind Speed Gust Speed Precip Events Conditions
12:15 AM 46.4 °F 43.5 °F 32.0 °F 57% 29.91 in 10.0 mi South 5.8 mph - N/A   Overcast
12:35 AM 46.4 °F 43.5 °F 33.8 °F 62% 29.89 in 10.0 mi SSE 5.8 mph - N/A   Overcast
12:55 AM 46.4 °F 41.5 °F 33.8 °F 62% 29.88 in 10.0 mi South 10.4 mph 17.3 mph N/A   Overcast
1:15 AM 48.2 °F - 33.8 °F 58% 29.88 in 10.0 mi South 11.5 mph - N/A   Overcast
1:35 AM 48.2 °F - 33.8 °F 58% 29.87 in 10.0 mi South 17.3 mph 23.0 mph N/A   Overcast
1:55 AM 48.2 °F - 33.8 °F 58% 29.87 in 10.0 mi South 15.0 mph 20.7 mph N/A   Overcast
2:15 AM 48.2 °F - 33.8 °F 58% 29.87 in 10.0 mi South 11.5 mph - N/A   Overcast
2:35 AM 48.2 °F - 33.8 °F 58% 29.86 in 10.0 mi South 15.0 mph - N/A   Overcast
2:55 AM 48.2 °F - 32.0 °F 54% 29.86 in 10.0 mi South 17.3 mph 21.9 mph N/A   Overcast
3:15 AM 48.2 °F - 32.0 °F 54% 29.85 in 10.0 mi South 17.3 mph 23.0 mph N/A   Overcast
3:35 AM 48.2 °F - 32.0 °F 54% 29.84 in 10.0 mi South 13.8 mph - N/A   Overcast
3:55 AM 48.2 °F - 32.0 °F 54% 29.84 in 10.0 mi South 15.0 mph 23.0 mph N/A   Overcast
4:15 AM 48.2 °F - 32.0 °F 54% 29.84 in 10.0 mi South 11.5 mph - N/A   Overcast
4:35 AM 48.2 °F - 32.0 °F 54% 29.84 in 10.0 mi South 12.7 mph - N/A   Overcast
4:55 AM 48.2 °F - 30.2 °F 50% 29.84 in 10.0 mi SSE 10.4 mph - N/A   Overcast
5:15 AM 48.2 °F - 32.0 °F 54% 29.83 in 10.0 mi South 9.2 mph - N/A   Overcast
5:35 AM 48.2 °F - 30.2 °F 50% 29.82 in 10.0 mi SSE 13.8 mph - N/A   Mostly Cloudy
5:55 AM 48.2 °F - 32.0 °F 54% 29.82 in 10.0 mi SE 9.2 mph - N/A   Scattered Clouds
6:15 AM 48.2 °F - 30.2 °F 50% 29.81 in 10.0 mi SSE 11.5 mph 19.6 mph N/A   Mostly Cloudy
6:35 AM 48.2 °F - 30.2 °F 50% 29.81 in 10.0 mi SSE 16.1 mph - N/A   Mostly Cloudy
6:55 AM 48.2 °F - 30.2 °F 50% 29.81 in 10.0 mi South 13.8 mph - N/A   Mostly Cloudy
7:15 AM 48.2 °F - 30.2 °F 50% 29.81 in 10.0 mi SSE 11.5 mph 16.1 mph N/A   Overcast
7:35 AM 48.2 °F - 30.2 °F 50% 29.81 in 10.0 mi South 17.3 mph 25.3 mph N/A   Overcast
7:55 AM 48.2 °F - 30.2 °F 50% 29.80 in 10.0 mi South 18.4 mph 25.3 mph N/A   Overcast
8:15 AM 48.2 °F - 32.0 °F 54% 29.79 in 10.0 mi South 16.1 mph 21.9 mph N/A   Overcast
8:35 AM 51.8 °F - 32.0 °F 47% 29.78 in 10.0 mi SSE 25.3 mph 31.1 mph N/A   Overcast
8:55 AM 51.8 °F - 30.2 °F 44% 29.78 in 10.0 mi SSE 27.6 mph 36.8 mph N/A   Overcast
9:15 AM 51.8 °F - 30.2 °F 44% 29.76 in 10.0 mi SSE 27.6 mph 38.0 mph N/A   Scattered Clouds
9:35 AM 51.8 °F - 32.0 °F 47% 29.76 in 10.0 mi SSE 24.2 mph 36.8 mph N/A   Scattered Clouds
9:55 AM 53.6 °F - 33.8 °F 47% 29.76 in 10.0 mi SSE 28.8 mph 36.8 mph N/A   Scattered Clouds
10:15 AM 55.4 °F - 33.8 °F 44% 29.74 in 10.0 mi SSE 36.8 mph 43.7 mph N/A   Clear
10:35 AM 55.4 °F - 33.8 °F 44% 29.74 in 10.0 mi SSE 36.8 mph 41.4 mph N/A   Partly Cloudy
10:55 AM 53.6 °F - 33.8 °F 47% 29.73 in 10.0 mi SSE 31.1 mph 41.4 mph N/A   Mostly Cloudy
11:15 AM 53.6 °F - 33.8 °F 47% 29.72 in 10.0 mi SSE 24.2 mph 38.0 mph N/A   Overcast
11:35 AM 51.8 °F - 35.6 °F 54% 29.72 in 10.0 mi SSE 19.6 mph 25.3 mph N/A   Overcast
11:55 AM 51.8 °F - 37.4 °F 58% 29.70 in 10.0 mi SSE 20.7 mph 24.2 mph N/A   Overcast
12:15 PM 51.8 °F - 37.4 °F 58% 29.70 in 10.0 mi SSE 24.2 mph 32.2 mph N/A   Overcast
12:35 PM 50.0 °F - 35.6 °F 58% 29.69 in 10.0 mi SSE 27.6 mph 34.5 mph N/A   Overcast
12:55 PM 50.0 °F - 35.6 °F 58% 29.69 in 10.0 mi SSE 21.9 mph 33.4 mph N/A   Overcast
1:15 PM 48.2 °F - 37.4 °F 66% 29.69 in 10.0 mi SSE 18.4 mph 29.9 mph N/A   Overcast
1:35 PM 51.8 °F - 37.4 °F 58% 29.67 in 10.0 mi SSE 16.1 mph 24.2 mph N/A   Overcast
1:55 PM 51.8 °F - 35.6 °F 54% 29.66 in 10.0 mi South 15.0 mph 26.5 mph N/A   Overcast
2:15 PM 51.8 °F - 35.6 °F 54% 29.66 in 10.0 mi South 10.4 mph 16.1 mph N/A   Overcast
2:35 PM 50.0 °F - 35.6 °F 58% 29.67 in 10.0 mi South 8.1 mph - N/A   Overcast
2:55 PM 50.0 °F - 35.6 °F 58% 29.67 in 10.0 mi South 11.5 mph 20.7 mph N/A   Overcast
3:15 PM 50.0 °F - 35.6 °F 58% 29.66 in 10.0 mi South 4.6 mph 21.9 mph N/A   Overcast
3:35 PM 50.0 °F - 35.6 °F 58% 29.65 in 10.0 mi Calm Calm - N/A   Overcast
3:55 PM 50.0 °F - 35.6 °F 58% 29.66 in 10.0 mi SSW 4.6 mph - N/A   Overcast
4:15 PM 50.0 °F - 35.6 °F 58% 29.65 in 10.0 mi SSE 9.2 mph - N/A   Overcast
4:35 PM 50.0 °F - 35.6 °F 58% 29.65 in 10.0 mi South 4.6 mph - N/A   Overcast
4:55 PM 48.2 °F - 35.6 °F 62% 29.64 in 10.0 mi South 5.8 mph - N/A   Overcast
5:15 PM 48.2 °F - 35.6 °F 62% 29.64 in 10.0 mi South 6.9 mph - N/A   Overcast
5:35 PM 48.2 °F - 35.6 °F 62% 29.64 in 10.0 mi SSE 8.1 mph - N/A   Overcast
5:55 PM 48.2 °F - 35.6 °F 62% 29.64 in 10.0 mi SSE 9.2 mph - N/A   Overcast
6:15 PM 48.2 °F - 37.4 °F 66% 29.63 in 10.0 mi SSW 11.5 mph - N/A   Overcast
6:35 PM 48.2 °F - 37.4 °F 66% 29.62 in 10.0 mi South 13.8 mph - N/A   Overcast
6:55 PM 48.2 °F - 37.4 °F 66% 29.61 in 10.0 mi South 15.0 mph 21.9 mph N/A   Overcast
7:15 PM 50.0 °F - 37.4 °F 62% 29.61 in 10.0 mi SSW 16.1 mph 21.9 mph N/A   Overcast
7:35 PM 48.2 °F - 37.4 °F 66% 29.61 in 7.0 mi South 17.3 mph 23.0 mph N/A   Overcast
7:55 PM 48.2 °F - 39.2 °F 71% 29.61 in 10.0 mi South 11.5 mph - N/A   Mostly Cloudy
8:15 PM 48.2 °F - 39.2 °F 71% 29.63 in 10.0 mi WNW 16.1 mph 21.9 mph N/A   Mostly Cloudy
8:35 PM 42.8 °F 32.9 °F 32.0 °F 66% 29.66 in 10.0 mi WNW 26.5 mph 36.8 mph N/A   Overcast
8:55 PM 39.2 °F 28.7 °F 30.2 °F 70% 29.68 in 9.0 mi NW 23.0 mph 29.9 mph N/A   Overcast
9:15 PM 37.4 °F 26.6 °F 28.4 °F 70% 29.68 in 3.0 mi NW 21.9 mph 27.6 mph N/A   Overcast
9:35 PM 37.4 °F 27.2 °F 28.4 °F 70% 29.67 in 7.0 mi NNW 19.6 mph - N/A   Overcast
9:55 PM 37.4 °F 27.8 °F 30.2 °F 75% 29.71 in 7.0 mi NNW 17.3 mph 25.3 mph N/A   Overcast
10:15 PM 37.4 °F 29.3 °F 30.2 °F 75% 29.74 in 10.0 mi North 12.7 mph - N/A   Mostly Cloudy
10:35 PM 37.4 °F 30.8 °F 30.2 °F 75% 29.75 in 10.0 mi NNE 9.2 mph - N/A   Overcast
10:55 PM 37.4 °F 30.3 °F 30.2 °F 75% 29.76 in 10.0 mi North 10.4 mph - N/A   Overcast
11:15 PM 37.4 °F 32.1 °F 30.2 °F 75% 29.78 in 10.0 mi NNE 6.9 mph - N/A   Overcast
11:35 PM 37.4 °F 31.4 °F 30.2 °F 75% 29.80 in 10.0 mi ESE 8.1 mph - N/A   Mostly Cloudy
11:55 PM 37.4 °F 30.8 °F 30.2 °F 75% 29.82 in 10.0 mi SE 9.2 mph - N/A   Mostly Cloudy